Time;durP1;ratioP1;P1;durP2;ratioP2;P2;SDS_P1;SDS_P2;PMS_P1;PMS_P2;Temp;Humidity;BMP_temperature;BMP_pressure;BME280_temperature;BME280_humidity;BME280_pressure;Samples;Min_cycle;Max_cycle;Signal;HPM_P1;HPM_P2
2023/04/17 00:01:47;;;;;;;41.03;21.13;;;;;;;12.54;59.71;102487.59;4918959;28;114165;-80
2023/04/17 00:04:14;;;;;;;37.58;20.70;;;;;;;12.53;59.76;102485.88;4929077;28;114012;-79
2023/04/17 00:06:44;;;;;;;34.05;19.65;;;;;;;12.53;59.77;102485.88;4928641;28;123816;-79
2023/04/17 00:09:11;;;;;;;36.63;19.67;;;;;;;12.53;59.61;102485.00;4929325;28;124269;-79
2023/04/17 00:11:39;;;;;;;39.80;20.38;;;;;;;12.53;59.94;102480.56;4929154;28;114323;-80
2023/04/17 00:14:06;;;;;;;36.90;20.35;;;;;;;12.53;59.75;102479.69;4928636;28;113741;-79
2023/04/17 00:16:33;;;;;;;37.05;20.27;;;;;;;12.53;59.97;102480.56;4928718;28;122898;-79
2023/04/17 00:19:00;;;;;;;34.60;19.88;;;;;;;12.55;59.87;102480.53;4927374;28;122706;-79
2023/04/17 00:21:31;;;;;;;37.33;20.42;;;;;;;12.54;59.88;102476.97;4929372;28;114412;-78
2023/04/17 00:23:58;;;;;;;39.95;20.50;;;;;;;12.53;59.94;102475.25;4927507;28;113033;-79
2023/04/17 00:26:25;;;;;;;36.10;21.52;;;;;;;12.53;59.85;102474.38;4928428;28;124387;-79
2023/04/17 00:28:52;;;;;;;37.38;19.98;;;;;;;12.53;59.95;102475.25;4930199;28;123733;-79
2023/04/17 00:31:19;;;;;;;39.15;20.30;;;;;;;12.52;60.03;102478.81;4928761;28;113324;-79
2023/04/17 00:33:46;;;;;;;35.90;20.73;;;;;;;12.52;59.94;102477.94;4931130;28;112914;-80
2023/04/17 00:36:14;;;;;;;36.13;20.33;;;;;;;12.52;60.06;102476.16;4942286;28;123911;-79
2023/04/17 00:38:41;;;;;;;39.15;20.48;;;;;;;12.50;60.21;102470.00;4943025;28;123449;-79
2023/04/17 00:41:09;;;;;;;32.13;20.63;;;;;;;12.52;60.07;102476.16;4910848;28;114861;-79
2023/04/17 00:43:38;;;;;;;36.38;20.77;;;;;;;12.51;60.21;102482.41;4939213;28;116425;-80
2023/04/17 00:46:06;;;;;;;33.75;20.95;;;;;;;12.52;60.03;102478.81;4919580;28;123534;-79
2023/04/17 00:48:36;;;;;;;34.17;19.17;;;;;;;12.52;60.21;102468.19;4933216;28;123274;-80
2023/04/17 00:51:03;;;;;;;34.05;18.60;;;;;;;12.53;59.83;102464.63;4950948;28;114391;-79
2023/04/17 00:53:31;;;;;;;33.53;18.67;;;;;;;12.53;60.09;102469.94;4928584;28;113639;-80
2023/04/17 00:56:00;;;;;;;34.28;18.67;;;;;;;12.54;60.08;102466.34;4928702;28;124588;-80
2023/04/17 00:58:27;;;;;;;35.35;18.70;;;;;;;12.55;60.10;102465.44;4926800;28;123839;-79
2023/04/17 01:00:54;;;;;;;31.00;18.55;;;;;;;12.55;59.98;102457.47;4926836;28;113894;-80
2023/04/17 01:03:22;;;;;;;31.45;18.10;;;;;;;12.57;60.02;102460.97;4927543;28;113943;-80
2023/04/17 01:05:50;;;;;;;31.60;18.10;;;;;;;12.56;60.36;102453.88;4942760;28;123264;-79
2023/04/17 01:08:18;;;;;;;29.83;17.65;;;;;;;12.57;59.93;102466.28;4935326;28;124650;-79
2023/04/17 01:10:46;;;;;;;30.80;18.50;;;;;;;12.57;59.81;102460.09;4930874;28;115551;-80
2023/04/17 01:13:13;;;;;;;29.88;17.48;;;;;;;12.58;59.70;102462.72;4930764;28;114197;-79
2023/04/17 01:15:42;;;;;;;30.70;18.55;;;;;;;12.57;59.64;102460.97;4927850;28;122376;-79
2023/04/17 01:18:10;;;;;;;31.70;18.77;;;;;;;12.59;59.92;102464.44;4928965;28;122967;-79
2023/04/17 01:20:37;;;;;;;30.27;18.80;;;;;;;12.60;59.78;102466.19;4928839;28;113845;-78
2023/04/17 01:23:04;;;;;;;32.05;18.63;;;;;;;12.60;59.75;102466.19;4945917;28;114006;-79
2023/04/17 01:25:33;;;;;;;30.88;19.05;;;;;;;12.60;59.78;102454.66;4939322;28;123781;-79
2023/04/17 01:28:00;;;;;;;32.38;18.98;;;;;;;12.60;59.79;102460.88;4955445;28;124518;-80
2023/04/17 01:30:28;;;;;;;33.20;18.73;;;;;;;12.59;59.91;102459.13;4933415;28;114933;-81
2023/04/17 01:33:02;;;;;;;32.13;18.85;;;;;;;12.58;59.78;102457.41;4921625;28;115424;-79
2023/04/17 01:35:29;;;;;;;33.80;19.88;;;;;;;12.59;59.96;102461.78;4926698;28;123283;-80
2023/04/17 01:37:57;;;;;;;40.03;19.80;;;;;;;12.60;59.89;102466.19;4935235;28;122406;-79
2023/04/17 01:40:24;;;;;;;35.58;20.10;;;;;;;12.60;60.17;102465.31;4938468;28;114049;-79
2023/04/17 01:42:51;;;;;;;33.92;20.58;;;;;;;12.59;60.01;102464.44;4935232;28;113289;-79
2023/04/17 01:45:18;;;;;;;36.92;20.30;;;;;;;12.59;59.99;102459.13;4921185;28;123554;-79
2023/04/17 01:47:46;;;;;;;38.88;19.73;;;;;;;12.58;59.93;102462.72;4943872;28;123683;-78
2023/04/17 01:50:13;;;;;;;34.78;20.17;;;;;;;12.57;59.88;102460.97;4934307;28;114139;-79
2023/04/17 01:52:41;;;;;;;33.15;19.83;;;;;;;12.57;60.02;102460.09;4950382;28;114272;-79
2023/04/17 01:55:08;;;;;;;35.17;18.55;;;;;;;12.56;59.87;102464.50;4932097;28;125275;-79
2023/04/17 01:57:35;;;;;;;35.60;20.17;;;;;;;12.55;60.03;102462.78;4941213;28;124376;-79
2023/04/17 02:00:08;;;;;;;35.83;19.25;;;;;;;12.54;59.83;102463.69;4930803;28;114819;-80
2023/04/17 02:02:38;;;;;;;;;;;;;;;12.53;59.70;102474.38;4931734;28;115112;-80
2023/04/17 02:05:06;;;;;;;38.13;18.48;;;;;;;12.52;59.81;102467.31;4929845;28;123457;-79
2023/04/17 02:07:33;;;;;;;36.33;19.42;;;;;;;12.50;59.90;102474.47;4913464;28;125332;-80
2023/04/17 02:10:00;;;;;;;32.35;19.27;;;;;;;12.48;59.87;102471.84;4929727;28;114237;-78
2023/04/17 02:12:27;;;;;;;36.08;19.90;;;;;;;12.46;59.90;102471.00;4941273;28;114115;-80
2023/04/17 02:14:59;;;;;;;36.83;19.17;;;;;;;12.45;59.92;102471.91;4954767;28;123933;-80
2023/04/17 02:17:27;;;;;;;35.22;19.75;;;;;;;12.44;59.96;102475.50;4928845;28;124049;-79
2023/04/17 02:19:54;;;;;;;38.50;20.63;;;;;;;12.43;59.97;102473.72;4929254;28;115463;-79
2023/04/17 02:22:21;;;;;;;35.22;20.27;;;;;;;12.42;60.19;102472.00;4930122;28;115134;-79
2023/04/17 02:24:48;;;;;;;40.92;19.77;;;;;;;12.42;59.98;102472.00;4925794;28;122351;-79
2023/04/17 02:27:16;;;;;;;34.05;20.27;;;;;;;12.43;60.06;102473.72;4943139;28;121888;-79
2023/04/17 02:29:43;;;;;;;34.50;20.17;;;;;;;12.43;60.15;102479.06;4929525;28;113732;-80
2023/04/17 02:32:10;;;;;;;37.95;20.48;;;;;;;12.41;60.15;102480.88;4945488;28;112178;-80
2023/04/17 02:34:37;;;;;;;40.00;20.83;;;;;;;12.41;60.13;102478.22;4938644;28;124360;-79
2023/04/17 02:37:05;;;;;;;39.63;21.75;;;;;;;12.41;60.17;102475.56;4939486;28;122278;-79
2023/04/17 02:39:34;;;;;;;37.63;20.90;;;;;;;12.41;60.21;102475.56;4963103;28;116634;-80
2023/04/17 02:42:02;;;;;;;37.53;20.98;;;;;;;12.42;60.20;102472.00;4929003;28;114042;-80
2023/04/17 02:44:29;;;;;;;37.88;20.48;;;;;;;12.41;60.21;102471.16;4927384;28;125346;-79
2023/04/17 02:46:57;;;;;;;37.00;21.05;;;;;;;12.41;60.32;102476.47;4946461;28;122832;-79
2023/04/17 02:49:26;;;;;;;37.67;20.20;;;;;;;12.41;60.30;102479.13;4913370;28;114068;-79
2023/04/17 02:51:53;;;;;;;41.50;21.38;;;;;;;12.42;60.42;102478.19;4996466;28;113533;-79
2023/04/17 02:54:20;;;;;;;37.72;21.08;;;;;;;12.44;60.29;102475.50;4940158;28;122534;-79
2023/04/17 02:56:49;;;;;;;40.97;22.02;;;;;;;12.43;60.19;102479.06;4919140;28;123043;-79
2023/04/17 02:59:17;;;;;;;41.42;21.58;;;;;;;12.42;60.07;102483.50;4925859;28;112383;-79
2023/04/17 03:01:44;;;;;;;37.53;20.77;;;;;;;12.41;60.32;102481.78;4974826;28;113518;-78
2023/04/17 03:04:16;;;;;;;39.53;21.98;;;;;;;12.43;60.34;102487.03;4952219;28;122745;-80
2023/04/17 03:06:43;;;;;;;38.97;21.08;;;;;;;12.40;60.18;102479.16;4950094;27;123410;-80
2023/04/17 03:09:13;;;;;;;41.08;21.05;;;;;;;12.40;60.06;102489.78;4934114;28;114814;-79
2023/04/17 03:11:40;;;;;;;41.60;22.65;;;;;;;12.38;60.12;102486.28;4928947;28;114715;-79
2023/04/17 03:14:08;;;;;;;40.33;21.88;;;;;;;12.38;60.23;102487.16;4929432;28;124015;-80
2023/04/17 03:16:35;;;;;;;40.28;22.23;;;;;;;12.37;60.20;102497.81;4928622;28;123851;-80
2023/04/17 03:19:02;;;;;;;39.50;21.50;;;;;;;12.36;60.26;102498.75;4928710;28;113530;-80
2023/04/17 03:21:30;;;;;;;44.28;23.45;;;;;;;12.34;60.33;102497.88;4928420;28;113695;-79
2023/04/17 03:23:58;;;;;;;49.15;22.67;;;;;;;12.34;60.26;102495.22;4930617;28;125058;-79
2023/04/17 03:26:25;;;;;;;43.80;22.27;;;;;;;12.35;60.31;102497.00;4929158;28;123027;-79
2023/04/17 03:28:53;;;;;;;41.17;22.15;;;;;;;12.34;60.34;102489.91;4929189;28;114557;-80
2023/04/17 03:31:22;;;;;;;41.97;23.20;;;;;;;12.33;60.22;102493.50;4930395;28;112498;-80
2023/04/17 03:33:50;;;;;;;40.22;23.27;;;;;;;12.31;60.41;102495.31;4930654;28;123433;-79
2023/04/17 03:36:17;;;;;;;43.30;24.15;;;;;;;12.31;60.38;102490.00;4929235;28;123455;-79
2023/04/17 03:38:45;;;;;;;42.30;22.88;;;;;;;12.30;60.32;102488.25;4939940;28;113946;-79
2023/04/17 03:41:15;;;;;;;43.92;23.55;;;;;;;12.30;60.50;102493.56;4925025;28;116173;-79
2023/04/17 03:43:43;;;;;;;44.55;23.40;;;;;;;12.29;60.64;102491.84;4943190;28;125872;-79
2023/04/17 03:46:10;;;;;;;44.28;23.70;;;;;;;12.28;60.49;102496.25;4940406;28;123568;-79
2023/04/17 03:48:38;;;;;;;44.42;24.10;;;;;;;12.29;60.43;102491.84;4940824;28;112647;-80
2023/04/17 03:51:05;;;;;;;43.10;23.30;;;;;;;12.27;60.52;102491.88;4947956;28;112351;-80
2023/04/17 03:53:34;;;;;;;48.40;24.05;;;;;;;12.25;60.55;102481.28;4927839;28;123629;-78
2023/04/17 03:56:05;;;;;;;43.67;23.30;;;;;;;12.25;60.51;102486.59;4945920;28;124521;-79
2023/04/17 03:58:37;;;;;;;42.80;23.13;;;;;;;12.24;60.44;102490.19;4959765;28;113487;-80
2023/04/17 04:01:09;;;;;;;42.78;23.70;;;;;;;12.25;60.60;102486.59;4926064;28;113580;-79
2023/04/17 04:03:43;;;;;;;44.42;22.58;;;;;;;12.23;60.61;102493.72;4956854;28;123463;-80
2023/04/17 04:06:10;;;;;;;46.13;23.38;;;;;;;12.24;60.60;102495.50;4939199;28;123420;-79
2023/04/17 04:08:37;;;;;;;44.30;23.48;;;;;;;12.24;60.80;102495.50;4943400;28;114532;-80
2023/04/17 04:11:05;;;;;;;50.13;24.08;;;;;;;12.24;60.74;102495.50;4938348;28;112496;-79
2023/04/17 04:13:36;;;;;;;44.97;23.25;;;;;;;12.25;60.67;102497.22;4913407;28;124213;-80
2023/04/17 04:16:03;;;;;;;45.05;23.10;;;;;;;12.25;60.74;102491.91;4928860;28;123693;-79
2023/04/17 04:18:35;;;;;;;47.35;24.08;;;;;;;12.25;60.67;102496.34;4930368;28;114341;-79
2023/04/17 04:21:04;;;;;;;49.80;24.67;;;;;;;12.25;60.64;102491.91;4909048;28;113767;-79
2023/04/17 04:23:36;;;;;;;49.17;24.02;;;;;;;12.25;60.94;102494.56;4932831;28;123590;-80
2023/04/17 04:26:04;;;;;;;46.58;23.92;;;;;;;12.29;60.93;102494.50;4927206;28;123391;-78
2023/04/17 04:28:37;;;;;;;47.55;24.33;;;;;;;12.29;60.86;102502.47;4956928;28;113348;-79
2023/04/17 04:31:08;;;;;;;43.63;24.40;;;;;;;12.27;61.00;102500.72;4929970;28;113952;-79
2023/04/17 04:33:39;;;;;;;45.75;25.35;;;;;;;12.26;60.95;102504.28;4931502;28;123115;-80
2023/04/17 04:36:06;;;;;;;46.00;24.85;;;;;;;12.25;61.08;102499.88;4942651;28;123903;-80
2023/04/17 04:38:36;;;;;;;48.13;25.60;;;;;;;12.23;61.13;102509.66;4944321;28;113757;-80
2023/04/17 04:41:11;;;;;;;45.70;24.80;;;;;;;12.22;61.01;102512.38;4928544;28;113085;-79
2023/04/17 04:43:41;;;;;;;46.03;23.90;;;;;;;12.22;61.25;102513.25;4948477;28;123578;-80
2023/04/17 04:46:10;;;;;;;45.05;25.25;;;;;;;12.22;61.07;102526.53;4947759;28;122300;-80
2023/04/17 04:48:42;;;;;;;43.67;23.05;;;;;;;12.22;61.08;102523.88;4939285;28;113823;-79
2023/04/17 04:51:09;;;;;;;46.53;23.27;;;;;;;12.22;61.06;102518.56;4927378;28;115032;-79
2023/04/17 04:53:40;;;;;;;45.53;22.58;;;;;;;12.22;61.13;102518.56;4943978;28;98432;-80
2023/04/17 04:56:07;;;;;;;40.88;22.83;;;;;;;12.23;61.11;102525.63;4942542;28;122451;-80
2023/04/17 04:58:35;;;;;;;46.53;23.67;;;;;;;12.21;60.94;102521.25;4916124;28;113327;-79
2023/04/17 05:01:03;;;;;;;41.80;22.45;;;;;;;12.19;60.92;102523.94;4943908;28;115169;-79
2023/04/17 05:03:43;;;;;;;41.50;22.63;;;;;;;12.18;61.39;102522.19;4928344;28;123516;-79
2023/04/17 05:06:15;;;;;;;40.63;21.80;;;;;;;12.17;60.89;102520.47;4926160;28;123660;-80
2023/04/17 05:08:47;;;;;;;43.00;22.25;;;;;;;12.15;61.04;102527.59;4946454;28;113925;-79
2023/04/17 05:11:15;;;;;;;40.28;22.40;;;;;;;12.14;61.08;102531.16;4932426;28;113493;-79
2023/04/17 05:13:42;;;;;;;38.35;21.40;;;;;;;12.11;61.22;102541.88;4910719;28;122597;-79
2023/04/17 05:16:17;;;;;;;39.92;22.52;;;;;;;12.07;61.18;102534.84;4924614;28;122125;-80
2023/04/17 05:18:46;;;;;;;38.45;21.48;;;;;;;12.07;61.22;102542.81;4938233;28;113202;-79
2023/04/17 05:21:17;;;;;;;37.97;20.35;;;;;;;12.05;61.24;102542.00;4960604;28;113296;-80
2023/04/17 05:23:48;;;;;;;39.08;21.98;;;;;;;12.07;61.51;102545.47;4947299;28;122222;-79
2023/04/17 05:26:16;;;;;;;37.58;20.77;;;;;;;12.08;61.06;102541.94;4929486;28;121670;-80
2023/04/17 05:28:43;;;;;;;39.33;20.77;;;;;;;12.10;61.21;102548.06;4950181;28;113976;-79
2023/04/17 05:31:15;;;;;;;35.25;21.00;;;;;;;12.11;61.33;102547.19;4930117;28;113171;-79
2023/04/17 05:33:43;;;;;;;37.83;20.55;;;;;;;12.10;61.05;102548.06;4930608;28;123070;-79
2023/04/17 05:36:11;;;;;;;40.63;23.02;;;;;;;12.10;61.09;102550.72;4930885;28;123345;-79
2023/04/17 05:38:40;;;;;;;40.47;21.67;;;;;;;12.07;61.12;102548.13;4926562;28;115050;-79
2023/04/17 05:41:09;;;;;;;40.97;21.40;;;;;;;12.05;61.26;102552.63;4924460;28;114273;-79
2023/04/17 05:43:36;;;;;;;38.42;20.60;;;;;;;12.06;61.18;102554.38;4938834;28;124508;-80
2023/04/17 05:46:04;;;;;;;44.47;21.83;;;;;;;12.05;61.41;102555.28;4942262;28;122417;-79
2023/04/17 05:48:31;;;;;;;40.17;22.85;;;;;;;12.04;61.31;102556.19;4962106;28;114099;-79
2023/04/17 05:50:59;;;;;;;40.63;22.25;;;;;;;12.04;61.42;102550.88;4930294;28;113707;-79
2023/04/17 05:53:29;;;;;;;40.63;21.23;;;;;;;12.04;61.25;102550.88;4931237;28;124321;-80
2023/04/17 05:55:57;;;;;;;39.75;20.77;;;;;;;12.07;61.44;102551.69;4930942;28;123792;-79
2023/04/17 05:58:24;;;;;;;40.17;21.60;;;;;;;12.10;61.39;102550.72;4942801;28;114444;-80
2023/04/17 06:00:55;;;;;;;43.15;22.95;;;;;;;12.12;61.38;102559.53;4953761;27;113613;-80
2023/04/17 06:03:25;;;;;;;40.40;22.13;;;;;;;12.14;61.38;102551.53;4951506;28;126031;-80
2023/04/17 06:06:05;;;;;;;41.20;21.75;;;;;;;12.13;61.24;102555.97;4948063;28;124439;-81
2023/04/17 06:08:32;;;;;;;39.92;21.35;;;;;;;12.14;61.42;102557.72;4951230;28;114740;-79
2023/04/17 06:11:00;;;;;;;35.92;20.50;;;;;;;12.14;61.15;102563.03;4959826;27;114957;-80
2023/04/17 06:13:27;;;;;;;38.80;20.92;;;;;;;12.13;61.20;102558.63;4953405;28;125057;-81
2023/04/17 06:15:57;;;;;;;36.50;20.52;;;;;;;12.16;61.38;102561.19;4984145;27;125066;-80
2023/04/17 06:18:24;;;;;;;38.55;20.50;;;;;;;12.15;61.26;102561.22;4951256;28;115090;-79
2023/04/17 06:20:51;;;;;;;39.50;20.67;;;;;;;12.17;61.23;102564.75;4953875;27;113383;-79
2023/04/17 06:23:19;;;;;;;37.97;21.35;;;;;;;12.18;61.07;102570.00;4974790;27;123205;-80
2023/04/17 06:25:48;;;;;;;41.20;20.52;;;;;;;12.20;61.08;102565.53;4944060;28;124696;-80
2023/04/17 06:28:15;;;;;;;39.97;21.65;;;;;;;12.22;61.07;102566.38;4953989;28;115922;-80
2023/04/17 06:30:42;;;;;;;40.67;21.52;;;;;;;12.23;61.12;102573.44;4963112;27;114636;-79
2023/04/17 06:33:10;;;;;;;38.80;21.83;;;;;;;12.24;61.08;102582.25;4958335;28;123258;-80
2023/04/17 06:35:38;;;;;;;35.90;20.45;;;;;;;12.26;61.18;102576.03;4953239;28;123401;-80
2023/04/17 06:38:37;;;;;;;38.38;20.67;;;;;;;12.26;61.15;102578.69;4950269;27;114805;-83
2023/04/17 06:41:06;;;;;;;40.38;21.30;;;;;;;12.30;61.08;102583.91;4956938;28;113893;-79
2023/04/17 06:43:35;;;;;;;42.00;22.42;;;;;;;12.31;60.99;102583.88;4964273;27;123538;-79
2023/04/17 06:46:12;;;;;;;42.42;23.48;;;;;;;12.35;61.07;102587.31;4968373;27;123404;-80
2023/04/17 06:48:39;;;;;;;39.88;21.05;;;;;;;12.37;61.13;102590.81;4940946;28;114355;-80
2023/04/17 06:51:06;;;;;;;38.10;20.73;;;;;;;12.38;61.00;102588.13;4935793;28;112381;-79
2023/04/17 06:53:33;;;;;;;38.83;21.42;;;;;;;12.41;60.96;102587.16;4951883;28;123697;-80
2023/04/17 06:56:00;;;;;;;39.53;21.10;;;;;;;12.43;61.13;102590.66;4951816;28;125491;-80
2023/04/17 06:58:28;;;;;;;41.95;21.65;;;;;;;12.45;60.77;102589.72;4954300;28;114785;-80
2023/04/17 07:00:55;;;;;;;39.33;21.67;;;;;;;12.47;60.72;102592.34;4954783;28;115439;-79
2023/04/17 07:03:22;;;;;;;40.45;22.38;;;;;;;12.49;60.88;102595.84;4955325;28;125099;-80
2023/04/17 07:05:50;;;;;;;39.85;23.08;;;;;;;12.54;60.92;102593.91;4955104;28;124317;-79
2023/04/17 07:08:21;;;;;;;38.47;21.13;;;;;;;12.57;60.83;102593.84;4964874;27;113800;-80
2023/04/17 07:10:48;;;;;;;39.40;22.35;;;;;;;12.59;60.74;102597.34;4954741;28;114333;-81
2023/04/17 07:13:15;;;;;;;39.55;21.17;;;;;;;12.63;60.84;102604.31;4952543;28;124877;-80
2023/04/17 07:15:42;;;;;;;42.15;22.60;;;;;;;12.65;60.76;102607.81;4952869;28;124243;-79
2023/04/17 07:18:10;;;;;;;45.03;22.67;;;;;;;12.70;60.70;102614.81;4969681;28;115846;-80
2023/04/17 07:20:37;;;;;;;40.00;22.42;;;;;;;12.74;60.66;102616.50;4954529;28;114874;-79
2023/04/17 07:23:04;;;;;;;42.55;22.73;;;;;;;12.76;60.45;102615.53;4954329;28;126412;-79
2023/04/17 07:25:31;;;;;;;43.03;22.48;;;;;;;12.80;60.55;102616.31;4954538;28;123003;-79
2023/04/17 07:27:58;;;;;;;40.72;21.73;;;;;;;12.82;60.53;102619.81;4955313;28;115282;-80
2023/04/17 07:30:25;;;;;;;39.70;22.25;;;;;;;12.87;60.36;102628.53;4955736;28;114623;-80
2023/04/17 07:32:53;;;;;;;43.70;23.25;;;;;;;12.89;60.36;102626.72;4954109;28;123536;-80
2023/04/17 07:35:21;;;;;;;41.78;22.55;;;;;;;12.93;60.19;102622.19;4953835;28;124244;-80
2023/04/17 07:37:49;;;;;;;41.30;22.98;;;;;;;12.95;60.22;102626.56;4954373;28;114757;-79
2023/04/17 07:40:16;;;;;;;43.80;24.27;;;;;;;12.97;60.09;102624.72;4953653;28;114506;-79
2023/04/17 07:42:44;;;;;;;42.50;23.73;;;;;;;13.00;60.14;102624.66;4952161;28;123460;-82
2023/04/17 07:45:11;;;;;;;43.17;23.83;;;;;;;13.04;60.11;102626.31;4947249;28;123953;-81
2023/04/17 07:47:38;;;;;;;41.75;23.88;;;;;;;13.10;60.19;102624.41;4945319;28;115066;-79
2023/04/17 07:50:06;;;;;;;44.80;25.05;;;;;;;13.15;60.27;102628.69;4953525;28;114714;-81
2023/04/17 07:52:33;;;;;;;44.00;24.25;;;;;;;13.20;59.91;102625.88;4953753;28;125030;-80
2023/04/17 07:55:00;;;;;;;43.83;24.33;;;;;;;13.21;59.78;102625.00;4953809;28;124802;-80
2023/04/17 07:57:27;;;;;;;43.35;24.20;;;;;;;13.21;59.60;102632.97;4952817;28;113905;-80
2023/04/17 07:59:55;;;;;;;46.15;27.40;;;;;;;13.21;59.41;102630.31;4960445;27;115007;-80
2023/04/17 08:02:22;;;;;;;45.78;25.50;;;;;;;13.19;59.31;102630.34;4959555;28;123754;-82
2023/04/17 08:04:50;;;;;;;44.58;25.23;;;;;;;13.19;59.32;102629.47;4952326;28;123035;-81
2023/04/17 08:07:19;;;;;;;44.65;24.38;;;;;;;13.22;59.43;102634.69;4954001;28;116830;-79
2023/04/17 08:09:46;;;;;;;50.08;25.27;;;;;;;13.27;59.61;102634.59;4953304;28;117092;-80
2023/04/17 08:12:13;;;;;;;44.22;24.83;;;;;;;13.29;59.37;102630.97;4934206;28;123745;-81
2023/04/17 08:14:42;;;;;;;48.45;25.55;;;;;;;13.31;59.44;102641.59;4951585;28;123737;-80
2023/04/17 08:17:09;;;;;;;42.83;25.92;;;;;;;13.29;59.30;102641.59;4954034;28;115258;-80
2023/04/17 08:19:36;;;;;;;46.63;26.45;;;;;;;13.29;59.31;102641.59;4969326;28;114587;-81
2023/04/17 08:22:04;;;;;;;43.88;25.92;;;;;;;13.30;59.18;102637.16;4968957;28;124568;-79
2023/04/17 08:24:32;;;;;;;48.47;27.30;;;;;;;13.29;59.10;102641.59;4961135;28;124479;-79
2023/04/17 08:26:59;;;;;;;46.17;25.63;;;;;;;13.31;59.09;102639.81;4956023;28;114852;-80
2023/04/17 08:29:26;;;;;;;46.70;26.02;;;;;;;13.32;59.34;102641.56;4952736;28;113495;-79
2023/04/17 08:31:53;;;;;;;43.53;25.58;;;;;;;13.36;59.28;102637.91;4951437;28;125148;-79
2023/04/17 08:34:40;;;;;;;47.03;26.45;;;;;;;13.42;59.20;102643.03;4952413;28;124903;-80
2023/04/17 08:37:07;;;;;;;48.08;26.35;;;;;;;13.48;59.16;102646.44;4953686;28;116653;-79
2023/04/17 08:39:34;;;;;;;47.05;26.55;;;;;;;13.52;59.26;102642.78;4953757;28;114629;-78
2023/04/17 08:42:06;;;;;;;47.53;26.80;;;;;;;13.58;59.20;102637.28;4952598;28;125158;-79
2023/04/17 08:44:34;;;;;;;46.60;26.83;;;;;;;13.66;59.25;102635.28;4953007;27;123275;-80
2023/04/17 08:47:03;;;;;;;46.95;26.42;;;;;;;13.76;59.04;102647.38;4953303;28;113879;-80
2023/04/17 08:49:34;;;;;;;46.20;26.60;;;;;;;13.83;58.83;102640.97;4953884;27;115161;-80
2023/04/17 08:52:03;;;;;;;43.67;26.35;;;;;;;13.90;58.69;102643.44;4962210;27;125082;-80
2023/04/17 08:54:33;;;;;;;44.40;26.95;;;;;;;13.94;58.38;102645.13;4948721;28;124775;-79
2023/04/17 08:57:02;;;;;;;44.30;25.80;;;;;;;13.98;58.33;102646.78;4949291;28;115584;-78
2023/04/17 08:59:30;;;;;;;44.88;26.38;;;;;;;14.04;58.10;102646.56;4966424;27;115865;-81
2023/04/17 09:02:05;;;;;;;41.83;26.70;;;;;;;14.11;58.23;102645.47;4953047;28;124955;-80
2023/04/17 09:04:41;;;;;;;44.38;24.92;;;;;;;14.18;57.98;102652.34;4956413;27;123275;-80
2023/04/17 09:07:10;;;;;;;44.83;26.65;;;;;;;14.25;57.95;102649.50;4972063;27;115133;-79
2023/04/17 09:09:55;;;;;;;44.38;25.92;;;;;;;14.33;58.01;102652.78;4935932;28;113185;-80
2023/04/17 09:12:24;;;;;;;40.17;24.65;;;;;;;14.40;57.64;102649.00;4951862;28;123695;-80
2023/04/17 09:14:51;;;;;;;45.47;25.30;;;;;;;14.48;57.60;102635.41;4933685;28;123594;-82
2023/04/17 09:17:20;;;;;;;42.88;25.77;;;;;;;14.54;57.26;102646.78;4932882;28;114512;-80
2023/04/17 09:20:11;;;;;;;45.85;26.55;;;;;;;14.57;56.97;102644.00;4947146;28;112340;-80
2023/04/17 09:22:39;;;;;;;41.42;24.98;;;;;;;14.60;56.72;102646.59;4943251;28;127107;-80
2023/04/17 09:25:19;;;;;;;45.65;25.65;;;;;;;14.62;56.72;102648.31;4993977;28;122646;-82
2023/04/17 09:27:47;;;;;;;44.00;26.90;;;;;;;14.66;56.70;102650.84;4948644;28;112712;-80
2023/04/17 09:30:14;;;;;;;45.15;25.75;;;;;;;14.71;56.83;102648.00;4956099;28;114377;-80
2023/04/17 09:32:41;;;;;;;41.58;25.90;;;;;;;14.76;56.43;102643.41;4961661;27;124897;-79
2023/04/17 09:35:08;;;;;;;42.88;26.52;;;;;;;14.81;56.26;102644.13;4951812;28;124455;-80
2023/04/17 09:37:53;;;;;;;38.92;24.75;;;;;;;14.85;56.27;102645.75;4943264;28;114694;-80
2023/04/17 09:40:23;;;;;;;38.65;23.50;;;;;;;14.89;56.03;102644.72;4947017;28;115117;-80
2023/04/17 09:43:02;;;;;;;40.25;24.65;;;;;;;14.93;55.68;102643.69;4958059;27;122907;-83
2023/04/17 09:45:34;;;;;;;40.53;24.50;;;;;;;14.96;55.80;102632.94;4951247;28;123222;-83
2023/04/17 09:48:05;;;;;;;39.60;24.00;;;;;;;15.06;55.66;102632.63;4943443;28;114820;-83
2023/04/17 09:50:33;;;;;;;39.55;24.30;;;;;;;15.14;55.52;102630.53;4925311;28;115443;-84
2023/04/17 09:53:04;;;;;;;36.35;24.92;;;;;;;15.24;55.42;102645.31;4919760;28;123991;-81
2023/04/17 09:55:32;;;;;;;39.65;23.95;;;;;;;15.35;55.46;102643.13;4942464;28;124295;-82
2023/04/17 09:58:02;;;;;;;39.50;24.52;;;;;;;15.47;55.21;102646.28;4913754;28;114046;-80
2023/04/17 10:00:30;;;;;;;39.58;23.50;;;;;;;15.56;54.36;102638.78;4930754;28;114473;-80
2023/04/17 10:02:58;;;;;;;39.78;24.50;;;;;;;15.67;54.69;102640.16;4940765;28;122116;-82
2023/04/17 10:05:29;;;;;;;39.63;23.15;;;;;;;15.81;54.41;102648.56;4961657;28;125116;-81
2023/04/17 10:07:56;;;;;;;30.30;15.63;;;;;;;-144.85;100.00;61331.59;4957680;28;114830;-82
2023/04/17 10:10:26;;;;;;;27.17;13.13;;;;;;;-144.85;100.00;61331.59;5034903;28;31431;-82
2023/04/17 10:12:57;;;;;;;34.55;18.00;;;;;;;-144.85;100.00;61331.59;5018559;28;32553;-83
2023/04/17 10:15:25;;;;;;;32.97;17.20;;;;;;;-144.85;100.00;61331.59;5021254;28;33895;-83
2023/04/17 10:17:55;;;;;;;31.38;16.75;;;;;;;-144.85;100.00;61331.59;5025726;28;32721;-83
2023/04/17 10:20:22;;;;;;;31.20;15.95;;;;;;;-144.85;100.00;61331.59;5042572;28;30414;-83
2023/04/17 10:22:54;;;;;;;32.67;16.10;;;;;;;-144.85;100.00;61331.59;5020532;28;31867;-83
2023/04/17 10:25:26;;;;;;;27.88;14.90;;;;;;;-144.85;100.00;61331.59;5015870;28;32572;-85
2023/04/17 10:27:58;;;;;;;28.50;15.60;;;;;;;-144.85;100.00;61331.59;5015812;28;33348;-84
2023/04/17 10:30:48;;;;;;;31.23;15.32;;;;;;;-144.85;100.00;61331.59;5031957;27;30258;-83
2023/04/17 10:33:18;;;;;;;29.42;15.52;;;;;;;-144.85;100.00;61331.59;5009788;28;32348;-84
2023/04/17 10:35:46;;;;;;;30.83;16.45;;;;;;;-144.85;100.00;61331.59;5015035;28;31929;-83
2023/04/17 10:38:15;;;;;;;30.92;16.70;;;;;;;-144.85;100.00;61331.59;5011492;28;31752;-83
2023/04/17 10:40:43;;;;;;;33.67;16.63;;;;;;;-144.85;100.00;61331.59;5016626;28;33027;-83
2023/04/17 10:43:16;;;;;;;32.72;15.88;;;;;;;-144.85;100.00;61331.59;5017155;28;31286;-83
2023/04/17 10:45:51;;;;;;;27.88;15.05;;;;;;;-144.85;100.00;61331.59;5019338;28;33230;-83
2023/04/17 10:48:45;;;;;;;30.23;15.70;;;;;;;-144.85;100.00;61331.59;5018057;28;31794;-82
2023/04/17 10:51:25;;;;;;;35.70;18.92;;;;;;;-144.85;100.00;61331.59;5018530;28;31485;-83
2023/04/17 10:53:57;;;;;;;32.90;18.35;;;;;;;-144.85;100.00;61331.59;5016770;28;33023;-83
2023/04/17 10:56:26;;;;;;;31.73;17.67;;;;;;;-144.85;100.00;61331.59;5031869;27;32026;-83
2023/04/17 10:58:58;;;;;;;31.60;17.13;;;;;;;-144.85;100.00;61331.59;5026238;28;32188;-82
2023/04/17 11:01:51;;;;;;;35.30;18.95;;;;;;;-144.85;100.00;61331.59;5017139;28;31939;-85
2023/04/17 11:04:32;;;;;;;34.47;19.25;;;;;;;-144.85;100.00;61331.59;5012979;28;31253;-81
2023/04/17 11:07:00;;;;;;;32.60;18.83;;;;;;;-144.85;100.00;61331.59;5015136;28;33179;-84
2023/04/17 11:09:28;;;;;;;30.48;18.63;;;;;;;-144.85;100.00;61331.59;5032443;28;32949;-83
2023/04/17 11:12:02;;;;;;;37.10;19.75;;;;;;;-144.85;100.00;61331.59;5016602;28;31840;-83